sensor_id;sensor_type;location;lat;lon;timestamp;pressure;altitude;pressure_sealevel;temperature;humidity
78665;BME280;67981;51.022;-2.870;2023-09-18T00:00:31;100842.47;;;16.33;100.00
78665;BME280;67981;51.022;-2.870;2023-09-18T00:02:58;100838.09;;;16.25;100.00
78665;BME280;67981;51.022;-2.870;2023-09-18T00:05:23;100851.16;;;16.32;100.00
78665;BME280;67981;51.022;-2.870;2023-09-18T00:07:49;100856.38;;;16.34;100.00
78665;BME280;67981;51.022;-2.870;2023-09-18T00:10:14;100844.22;;;16.34;100.00
78665;BME280;67981;51.022;-2.870;2023-09-18T00:12:40;100842.50;;;16.35;100.00
78665;BME280;67981;51.022;-2.870;2023-09-18T00:15:06;100834.66;;;16.33;100.00
78665;BME280;67981;51.022;-2.870;2023-09-18T00:17:37;100841.63;;;16.31;100.00
78665;BME280;67981;51.022;-2.870;2023-09-18T00:20:03;100844.16;;;16.25;100.00
78665;BME280;67981;51.022;-2.870;2023-09-18T00:22:31;100853.72;;;16.25;100.00
78665;BME280;67981;51.022;-2.870;2023-09-18T00:24:57;100832.81;;;16.16;100.00
78665;BME280;67981;51.022;-2.870;2023-09-18T00:27:22;100832.81;;;16.13;100.00
78665;BME280;67981;51.022;-2.870;2023-09-18T00:29:48;100829.25;;;15.99;100.00
78665;BME280;67981;51.022;-2.870;2023-09-18T00:32:13;100837.06;;;15.94;100.00
78665;BME280;67981;51.022;-2.870;2023-09-18T00:34:39;100841.34;;;15.89;100.00
78665;BME280;67981;51.022;-2.870;2023-09-18T00:37:04;100843.94;;;15.88;100.00
78665;BME280;67981;51.022;-2.870;2023-09-18T00:39:30;100847.38;;;15.84;100.00
78665;BME280;67981;51.022;-2.870;2023-09-18T00:41:56;100867.34;;;15.82;100.00
78665;BME280;67981;51.022;-2.870;2023-09-18T00:44:22;100887.31;;;15.89;100.00
78665;BME280;67981;51.022;-2.870;2023-09-18T00:46:48;100902.94;;;15.92;100.00
78665;BME280;67981;51.022;-2.870;2023-09-18T00:49:15;100902.97;;;15.95;100.00
78665;BME280;67981;51.022;-2.870;2023-09-18T00:51:41;100894.19;;;15.79;100.00
78665;BME280;67981;51.022;-2.870;2023-09-18T00:54:08;100922.03;;;15.88;100.00
78665;BME280;67981;51.022;-2.870;2023-09-18T00:56:34;100915.03;;;15.82;100.00
78665;BME280;67981;51.022;-2.870;2023-09-18T00:59:00;100911.47;;;15.73;100.00
78665;BME280;67981;51.022;-2.870;2023-09-18T01:01:28;100904.44;;;15.63;100.00
78665;BME280;67981;51.022;-2.870;2023-09-18T01:03:55;100909.63;;;15.59;100.00
78665;BME280;67981;51.022;-2.870;2023-09-18T01:06:21;100911.28;;;15.51;100.00
78665;BME280;67981;51.022;-2.870;2023-09-18T01:08:47;100904.31;;;15.47;100.00
78665;BME280;67981;51.022;-2.870;2023-09-18T01:16:57;100913.91;;;15.56;100.00
78665;BME280;67981;51.022;-2.870;2023-09-18T01:19:42;100933.91;;;15.58;100.00
78665;BME280;67981;51.022;-2.870;2023-09-18T01:22:11;100933.00;;;15.56;100.00
78665;BME280;67981;51.022;-2.870;2023-09-18T01:24:38;100938.22;;;15.56;100.00
78665;BME280;67981;51.022;-2.870;2023-09-18T01:27:04;100942.47;;;15.48;100.00
78665;BME280;67981;51.022;-2.870;2023-09-18T01:29:31;100949.44;;;15.51;100.00
78665;BME280;67981;51.022;-2.870;2023-09-18T01:31:56;100942.50;;;15.51;100.00
78665;BME280;67981;51.022;-2.870;2023-09-18T01:34:26;100939.03;;;15.51;100.00
78665;BME280;67981;51.022;-2.870;2023-09-18T01:36:55;100919.06;;;15.50;100.00
78665;BME280;67981;51.022;-2.870;2023-09-18T01:39:22;100924.22;;;15.42;100.00
78665;BME280;67981;51.022;-2.870;2023-09-18T01:41:49;100928.56;;;15.46;100.00
78665;BME280;67981;51.022;-2.870;2023-09-18T01:44:15;100928.63;;;15.49;100.00
78665;BME280;67981;51.022;-2.870;2023-09-18T01:46:41;100932.03;;;15.45;100.00
78665;BME280;67981;51.022;-2.870;2023-09-18T01:49:07;100922.50;;;15.43;100.00
78665;BME280;67981;51.022;-2.870;2023-09-18T01:51:33;100910.34;;;15.45;100.00
78665;BME280;67981;51.022;-2.870;2023-09-18T01:53:58;100925.13;;;15.46;100.00
78665;BME280;67981;51.022;-2.870;2023-09-18T01:56:23;100901.66;;;15.41;100.00
78665;BME280;67981;51.022;-2.870;2023-09-18T01:58:49;100916.41;;;15.44;100.00
78665;BME280;67981;51.022;-2.870;2023-09-18T02:01:15;100896.41;;;15.40;100.00
78665;BME280;67981;51.022;-2.870;2023-09-18T02:03:40;100893.81;;;15.40;100.00
78665;BME280;67981;51.022;-2.870;2023-09-18T02:06:07;100877.28;;;15.35;100.00
78665;BME280;67981;51.022;-2.870;2023-09-18T02:08:32;100880.72;;;15.31;100.00
78665;BME280;67981;51.022;-2.870;2023-09-18T02:10:57;100879.84;;;15.33;100.00
78665;BME280;67981;51.022;-2.870;2023-09-18T02:13:23;100875.53;;;15.34;100.00
78665;BME280;67981;51.022;-2.870;2023-09-18T02:15:48;100878.19;;;15.38;100.00
78665;BME280;67981;51.022;-2.870;2023-09-18T02:18:14;100856.50;;;15.35;100.00
78665;BME280;67981;51.022;-2.870;2023-09-18T02:20:41;100855.63;;;15.37;100.00
78665;BME280;67981;51.022;-2.870;2023-09-18T02:23:07;100845.22;;;15.34;100.00
78665;BME280;67981;51.022;-2.870;2023-09-18T02:25:32;100838.25;;;15.33;100.00
78665;BME280;67981;51.022;-2.870;2023-09-18T02:27:58;100835.59;;;15.27;100.00
78665;BME280;67981;51.022;-2.870;2023-09-18T02:30:23;100826.03;;;15.23;100.00
78665;BME280;67981;51.022;-2.870;2023-09-18T02:32:48;100813.84;;;15.16;100.00
78665;BME280;67981;51.022;-2.870;2023-09-18T02:35:14;100821.63;;;15.18;100.00
78665;BME280;67981;51.022;-2.870;2023-09-18T02:37:39;100813.75;;;15.07;100.00
78665;BME280;67981;51.022;-2.870;2023-09-18T02:40:05;100818.09;;;15.08;100.00
78665;BME280;67981;51.022;-2.870;2023-09-18T02:42:31;100809.34;;;15.02;100.00
78665;BME280;67981;51.022;-2.870;2023-09-18T02:44:56;100798.00;;;14.94;100.00
78665;BME280;67981;51.022;-2.870;2023-09-18T02:47:21;100780.56;;;14.84;100.00
78665;BME280;67981;51.022;-2.870;2023-09-18T02:49:47;100797.06;;;14.87;100.00
78665;BME280;67981;51.022;-2.870;2023-09-18T02:52:12;100794.47;;;14.86;100.00
78665;BME280;67981;51.022;-2.870;2023-09-18T02:54:37;100798.72;;;14.78;100.00
78665;BME280;67981;51.022;-2.870;2023-09-18T02:57:03;100797.75;;;14.70;100.00
78665;BME280;67981;51.022;-2.870;2023-09-18T02:59:28;100784.72;;;14.64;100.00
78665;BME280;67981;51.022;-2.870;2023-09-18T03:01:54;100805.50;;;14.65;100.00
78665;BME280;67981;51.022;-2.870;2023-09-18T03:04:19;100815.03;;;14.68;100.00
78665;BME280;67981;51.022;-2.870;2023-09-18T03:06:45;100812.44;;;14.66;100.00
78665;BME280;67981;51.022;-2.870;2023-09-18T03:09:10;100800.16;;;14.53;100.00
78665;BME280;67981;51.022;-2.870;2023-09-18T03:11:36;100787.09;;;14.47;100.00
78665;BME280;67981;51.022;-2.870;2023-09-18T03:14:01;100801.88;;;14.51;100.00
78665;BME280;67981;51.022;-2.870;2023-09-18T03:16:26;100776.66;;;14.43;100.00
78665;BME280;67981;51.022;-2.870;2023-09-18T03:18:52;100766.28;;;14.41;100.00
78665;BME280;67981;51.022;-2.870;2023-09-18T03:21:17;100759.44;;;14.51;100.00
78665;BME280;67981;51.022;-2.870;2023-09-18T03:23:43;100724.66;;;14.35;100.00
78665;BME280;67981;51.022;-2.870;2023-09-18T03:26:08;100714.31;;;14.40;100.00
78665;BME280;67981;51.022;-2.870;2023-09-18T03:28:33;100703.06;;;14.41;100.00
78665;BME280;67981;51.022;-2.870;2023-09-18T03:30:59;100692.63;;;14.33;100.00
78665;BME280;67981;51.022;-2.870;2023-09-18T03:33:24;100679.59;;;14.29;100.00
78665;BME280;67981;51.022;-2.870;2023-09-18T03:35:51;100670.84;;;14.23;100.00
78665;BME280;67981;51.022;-2.870;2023-09-18T03:38:19;100663.91;;;14.24;100.00
78665;BME280;67981;51.022;-2.870;2023-09-18T03:40:46;100675.22;;;14.28;100.00
78665;BME280;67981;51.022;-2.870;2023-09-18T03:43:11;100658.75;;;14.26;100.00
78665;BME280;67981;51.022;-2.870;2023-09-18T03:45:39;100659.63;;;14.25;100.00
78665;BME280;67981;51.022;-2.870;2023-09-18T03:48:08;100657.78;;;14.17;100.00
78665;BME280;67981;51.022;-2.870;2023-09-18T03:50:33;100652.53;;;14.11;100.00
78665;BME280;67981;51.022;-2.870;2023-09-18T03:52:59;100633.41;;;14.02;100.00
78665;BME280;67981;51.022;-2.870;2023-09-18T03:55:24;100630.75;;;13.96;100.00
78665;BME280;67981;51.022;-2.870;2023-09-18T03:57:52;100641.16;;;14.00;100.00
78665;BME280;67981;51.022;-2.870;2023-09-18T04:00:17;100625.47;;;13.88;100.00
78665;BME280;67981;51.022;-2.870;2023-09-18T04:02:42;100630.66;;;13.88;100.00
78665;BME280;67981;51.022;-2.870;2023-09-18T04:05:08;100626.22;;;13.78;100.00
78665;BME280;67981;51.022;-2.870;2023-09-18T04:07:34;100643.50;;;13.78;100.00
78665;BME280;67981;51.022;-2.870;2023-09-18T04:10:00;100649.50;;;13.74;100.00
78665;BME280;67981;51.022;-2.870;2023-09-18T04:12:25;100622.53;;;13.63;100.00
78665;BME280;67981;51.022;-2.870;2023-09-18T04:14:50;100626.91;;;13.64;100.00
78665;BME280;67981;51.022;-2.870;2023-09-18T04:17:16;100628.53;;;13.57;100.00
78665;BME280;67981;51.022;-2.870;2023-09-18T04:19:41;100645.84;;;13.60;100.00
78665;BME280;67981;51.022;-2.870;2023-09-18T04:22:08;100642.44;;;13.62;100.00
78665;BME280;67981;51.022;-2.870;2023-09-18T04:24:34;100625.09;;;13.58;100.00
78665;BME280;67981;51.022;-2.870;2023-09-18T04:26:59;100622.53;;;13.63;100.00
78665;BME280;67981;51.022;-2.870;2023-09-18T04:29:24;100604.28;;;13.52;100.00
78665;BME280;67981;51.022;-2.870;2023-09-18T04:31:50;100596.50;;;13.52;100.00
78665;BME280;67981;51.022;-2.870;2023-09-18T04:34:15;100595.56;;;13.49;100.00
78665;BME280;67981;51.022;-2.870;2023-09-18T04:36:41;100570.38;;;13.37;100.00
78665;BME280;67981;51.022;-2.870;2023-09-18T04:39:07;100584.38;;;13.50;100.00
78665;BME280;67981;51.022;-2.870;2023-09-18T04:41:32;100562.63;;;13.42;100.00
78665;BME280;67981;51.022;-2.870;2023-09-18T04:43:59;100564.44;;;13.46;100.00
78665;BME280;67981;51.022;-2.870;2023-09-18T04:46:24;100546.31;;;13.47;100.00
78665;BME280;67981;51.022;-2.870;2023-09-18T04:48:50;100543.66;;;13.43;100.00
78665;BME280;67981;51.022;-2.870;2023-09-18T04:51:15;100519.34;;;13.33;100.00
78665;BME280;67981;51.022;-2.870;2023-09-18T04:53:41;100509.00;;;13.35;100.00
78665;BME280;67981;51.022;-2.870;2023-09-18T04:56:06;100508.09;;;13.31;100.00
78665;BME280;67981;51.022;-2.870;2023-09-18T04:58:32;100520.22;;;13.34;100.00
78665;BME280;67981;51.022;-2.870;2023-09-18T05:00:58;100514.13;;;13.30;100.00
78665;BME280;67981;51.022;-2.870;2023-09-18T05:03:24;100517.59;;;13.31;100.00
78665;BME280;67981;51.022;-2.870;2023-09-18T05:05:52;100521.91;;;13.30;100.00
78665;BME280;67981;51.022;-2.870;2023-09-18T05:08:17;100518.41;;;13.25;100.00
78665;BME280;67981;51.022;-2.870;2023-09-18T05:10:42;100504.47;;;13.17;100.00
78665;BME280;67981;51.022;-2.870;2023-09-18T05:13:09;100504.38;;;13.11;100.00
78665;BME280;67981;51.022;-2.870;2023-09-18T05:15:35;100508.72;;;13.11;100.00
78665;BME280;67981;51.022;-2.870;2023-09-18T05:18:00;100492.91;;;12.96;100.00
78665;BME280;67981;51.022;-2.870;2023-09-18T05:20:28;100512.91;;;13.01;100.00
78665;BME280;67981;51.022;-2.870;2023-09-18T05:22:55;100513.66;;;12.97;100.00
78665;BME280;67981;51.022;-2.870;2023-09-18T05:25:25;100511.06;;;12.96;100.00
78665;BME280;67981;51.022;-2.870;2023-09-18T05:27:52;100514.53;;;12.96;100.00
78665;BME280;67981;51.022;-2.870;2023-09-18T05:30:24;100487.59;;;12.85;100.00
78665;BME280;67981;51.022;-2.870;2023-09-18T05:32:50;100496.22;;;12.84;100.00
78665;BME280;67981;51.022;-2.870;2023-09-18T05:35:16;100496.13;;;12.78;100.00
78665;BME280;67981;51.022;-2.870;2023-09-18T05:37:42;100497.06;;;12.81;100.00
78665;BME280;67981;51.022;-2.870;2023-09-18T05:40:09;100495.19;;;12.73;100.00
78665;BME280;67981;51.022;-2.870;2023-09-18T05:42:36;100490.72;;;12.63;100.00
78665;BME280;67981;51.022;-2.870;2023-09-18T05:45:02;100497.69;;;12.65;100.00
78665;BME280;67981;51.022;-2.870;2023-09-18T05:47:30;100472.44;;;12.51;100.00
78665;BME280;67981;51.022;-2.870;2023-09-18T05:49:57;100485.28;;;12.43;100.00
78665;BME280;67981;51.022;-2.870;2023-09-18T05:52:22;100464.41;;;12.34;100.00
78665;BME280;67981;51.022;-2.870;2023-09-18T05:54:49;100474.13;;;12.47;100.00
78665;BME280;67981;51.022;-2.870;2023-09-18T05:57:14;100459.41;;;12.45;100.00
78665;BME280;67981;51.022;-2.870;2023-09-18T05:59:40;100464.63;;;12.46;100.00
78665;BME280;67981;51.022;-2.870;2023-09-18T06:02:09;100472.50;;;12.55;100.00
78665;BME280;67981;51.022;-2.870;2023-09-18T06:04:34;100486.38;;;12.59;100.00
78665;BME280;67981;51.022;-2.870;2023-09-18T06:07:03;100469.91;;;12.55;100.00
78665;BME280;67981;51.022;-2.870;2023-09-18T06:09:28;100485.66;;;12.69;100.00
78665;BME280;67981;51.022;-2.870;2023-09-18T06:11:53;100490.06;;;12.76;100.00
78665;BME280;67981;51.022;-2.870;2023-09-18T06:14:19;100485.88;;;12.85;100.00
78665;BME280;67981;51.022;-2.870;2023-09-18T06:16:44;100498.09;;;12.94;100.00
78665;BME280;67981;51.022;-2.870;2023-09-18T06:19:09;100513.03;;;13.13;100.00
78665;BME280;67981;51.022;-2.870;2023-09-18T06:21:35;100520.94;;;13.22;100.00
78665;BME280;67981;51.022;-2.870;2023-09-18T06:24:00;100538.56;;;13.52;100.00
78665;BME280;67981;51.022;-2.870;2023-09-18T06:26:25;100563.28;;;13.94;100.00
78665;BME280;67981;51.022;-2.870;2023-09-18T06:28:51;100555.34;;;13.81;100.00
78665;BME280;67981;51.022;-2.870;2023-09-18T06:31:17;100544.97;;;13.84;100.00
78665;BME280;67981;51.022;-2.870;2023-09-18T06:33:43;100525.91;;;13.80;100.00
78665;BME280;67981;51.022;-2.870;2023-09-18T06:36:09;100539.09;;;14.01;100.00
78665;BME280;67981;51.022;-2.870;2023-09-18T06:38:34;100534.03;;;14.12;100.00
78665;BME280;67981;51.022;-2.870;2023-09-18T06:41:00;100514.19;;;14.18;100.00
78665;BME280;67981;51.022;-2.870;2023-09-18T06:43:25;100522.94;;;14.27;100.00
78665;BME280;67981;51.022;-2.870;2023-09-18T06:45:50;100523.94;;;14.44;100.00
78665;BME280;67981;51.022;-2.870;2023-09-18T06:48:16;100530.97;;;14.58;100.00
78665;BME280;67981;51.022;-2.870;2023-09-18T06:50:42;100512.00;;;14.68;100.00
78665;BME280;67981;51.022;-2.870;2023-09-18T06:53:08;100493.03;;;14.80;100.00
78665;BME280;67981;51.022;-2.870;2023-09-18T06:55:34;100464.50;;;14.87;100.00
78665;BME280;67981;51.022;-2.870;2023-09-18T06:58:00;100429.88;;;14.88;100.00
78665;BME280;67981;51.022;-2.870;2023-09-18T07:00:25;100386.56;;;14.93;100.00
78665;BME280;67981;51.022;-2.870;2023-09-18T07:02:50;100361.47;;;14.95;100.00
78665;BME280;67981;51.022;-2.870;2023-09-18T07:05:16;100336.34;;;14.99;100.00
78665;BME280;67981;51.022;-2.870;2023-09-18T07:07:41;100306.91;;;15.03;100.00
78665;BME280;67981;51.022;-2.870;2023-09-18T07:10:07;100299.13;;;15.06;100.00
78665;BME280;67981;51.022;-2.870;2023-09-18T07:12:32;100260.16;;;15.04;100.00
78665;BME280;67981;51.022;-2.870;2023-09-18T07:15:02;100260.16;;;15.07;100.00
78665;BME280;67981;51.022;-2.870;2023-09-18T07:17:28;100256.66;;;15.10;100.00
78665;BME280;67981;51.022;-2.870;2023-09-18T07:19:53;100250.63;;;15.11;100.00
78665;BME280;67981;51.022;-2.870;2023-09-18T07:22:19;100227.22;;;15.06;100.00
78665;BME280;67981;51.022;-2.870;2023-09-18T07:24:44;100241.94;;;15.15;100.00
78665;BME280;67981;51.022;-2.870;2023-09-18T07:27:11;100235.03;;;15.15;100.00
78665;BME280;67981;51.022;-2.870;2023-09-18T07:29:36;100235.88;;;15.17;100.00
78665;BME280;67981;51.022;-2.870;2023-09-18T07:32:02;100240.22;;;15.15;100.00
78665;BME280;67981;51.022;-2.870;2023-09-18T07:34:27;100236.75;;;15.16;100.00
78665;BME280;67981;51.022;-2.870;2023-09-18T07:36:53;100223.75;;;15.09;100.00
78665;BME280;67981;51.022;-2.870;2023-09-18T07:39:20;100231.56;;;15.13;100.00
78665;BME280;67981;51.022;-2.870;2023-09-18T07:41:46;100245.44;;;15.18;100.00
78665;BME280;67981;51.022;-2.870;2023-09-18T07:44:17;100257.53;;;15.21;100.00
78665;BME280;67981;51.022;-2.870;2023-09-18T07:46:43;100269.69;;;15.23;100.00
78665;BME280;67981;51.022;-2.870;2023-09-18T07:49:09;100275.75;;;15.30;100.00
78665;BME280;67981;51.022;-2.870;2023-09-18T07:51:36;100285.28;;;15.28;100.00
78665;BME280;67981;51.022;-2.870;2023-09-18T07:54:01;100296.56;;;15.30;100.00
78665;BME280;67981;51.022;-2.870;2023-09-18T07:56:26;100309.56;;;15.37;100.00
78665;BME280;67981;51.022;-2.870;2023-09-18T07:58:52;100346.88;;;15.76;100.00
78665;BME280;67981;51.022;-2.870;2023-09-18T08:01:17;100352.06;;;16.06;100.00
78665;BME280;67981;51.022;-2.870;2023-09-18T08:03:43;100340.78;;;15.99;100.00
78665;BME280;67981;51.022;-2.870;2023-09-18T08:06:08;100318.25;;;15.86;100.00
78665;BME280;67981;51.022;-2.870;2023-09-18T08:08:34;100304.34;;;15.87;100.00
78665;BME280;67981;51.022;-2.870;2023-09-18T08:11:07;100288.72;;;15.93;100.00
78665;BME280;67981;51.022;-2.870;2023-09-18T08:13:33;100271.38;;;15.94;100.00
78665;BME280;67981;51.022;-2.870;2023-09-18T08:15:59;100273.06;;;16.08;100.00
78665;BME280;67981;51.022;-2.870;2023-09-18T08:18:24;100270.44;;;16.22;100.00
78665;BME280;67981;51.022;-2.870;2023-09-18T08:20:52;100263.47;;;16.25;100.00
78665;BME280;67981;51.022;-2.870;2023-09-18T08:23:18;100228.78;;;16.14;100.00
78665;BME280;67981;51.022;-2.870;2023-09-18T08:25:43;100227.09;;;16.12;100.00
78665;BME280;67981;51.022;-2.870;2023-09-18T08:28:09;100220.13;;;16.18;100.00
78665;BME280;67981;51.022;-2.870;2023-09-18T08:30:34;100212.28;;;16.21;100.00
78665;BME280;67981;51.022;-2.870;2023-09-18T08:33:02;100204.47;;;16.21;100.00
78665;BME280;67981;51.022;-2.870;2023-09-18T08:35:27;100193.13;;;16.34;100.00
78665;BME280;67981;51.022;-2.870;2023-09-18T08:37:54;100169.63;;;16.48;100.00
78665;BME280;67981;51.022;-2.870;2023-09-18T08:40:20;100152.22;;;16.53;100.00
78665;BME280;67981;51.022;-2.870;2023-09-18T08:42:47;100102.81;;;16.39;100.00
78665;BME280;67981;51.022;-2.870;2023-09-18T08:45:35;100061.16;;;16.39;100.00
78665;BME280;67981;51.022;-2.870;2023-09-18T08:48:01;100040.31;;;16.39;100.00
78665;BME280;67981;51.022;-2.870;2023-09-18T08:50:27;100013.44;;;16.34;100.00
78665;BME280;67981;51.022;-2.870;2023-09-18T08:52:54;99999.59;;;16.31;100.00
78665;BME280;67981;51.022;-2.870;2023-09-18T08:55:20;99980.56;;;16.23;100.00
78665;BME280;67981;51.022;-2.870;2023-09-18T08:57:46;99967.53;;;16.23;100.00
78665;BME280;67981;51.022;-2.870;2023-09-18T09:00:12;99961.44;;;16.24;100.00
78665;BME280;67981;51.022;-2.870;2023-09-18T09:02:43;99945.78;;;16.31;100.00
78665;BME280;67981;51.022;-2.870;2023-09-18T09:05:09;99926.56;;;16.40;100.00
78665;BME280;67981;51.022;-2.870;2023-09-18T09:07:34;99918.75;;;16.46;100.00
78665;BME280;67981;51.022;-2.870;2023-09-18T09:09:59;99889.31;;;16.36;100.00
78665;BME280;67981;51.022;-2.870;2023-09-18T09:15:12;99870.41;;;16.15;100.00
78665;BME280;67981;51.022;-2.870;2023-09-18T09:17:38;99872.28;;;16.02;100.00
78665;BME280;67981;51.022;-2.870;2023-09-18T09:20:11;99893.13;;;16.01;100.00
78665;BME280;67981;51.022;-2.870;2023-09-18T09:22:38;99894.97;;;15.88;100.00
78665;BME280;67981;51.022;-2.870;2023-09-18T09:27:47;99918.38;;;15.85;100.00
78665;BME280;67981;51.022;-2.870;2023-09-18T09:30:19;99915.81;;;15.81;100.00
78665;BME280;67981;51.022;-2.870;2023-09-18T09:32:48;99947.75;;;16.04;100.00
78665;BME280;67981;51.022;-2.870;2023-09-18T09:35:37;99940.81;;;16.01;100.00
78665;BME280;67981;51.022;-2.870;2023-09-18T09:38:10;99928.53;;;16.18;100.00
78665;BME280;67981;51.022;-2.870;2023-09-18T09:40:39;99885.19;;;16.11;100.00
78665;BME280;67981;51.022;-2.870;2023-09-18T09:43:08;99864.41;;;16.08;100.00
78665;BME280;67981;51.022;-2.870;2023-09-18T09:45:33;99865.22;;;16.15;100.00
78665;BME280;67981;51.022;-2.870;2023-09-18T09:48:04;99842.59;;;16.20;100.00
78665;BME280;67981;51.022;-2.870;2023-09-18T09:50:30;99833.00;;;16.25;100.00
78665;BME280;67981;51.022;-2.870;2023-09-18T09:52:57;99814.69;;;16.32;100.00
78665;BME280;67981;51.022;-2.870;2023-09-18T09:58:00;99798.47;;;16.82;100.00
78665;BME280;67981;51.022;-2.870;2023-09-18T10:00:36;99772.47;;;16.77;100.00
78665;BME280;67981;51.022;-2.870;2023-09-18T10:03:11;99722.84;;;16.85;100.00
78665;BME280;67981;51.022;-2.870;2023-09-18T10:05:39;99685.25;;;17.01;100.00
78665;BME280;67981;51.022;-2.870;2023-09-18T10:08:23;99641.41;;;17.24;100.00
78665;BME280;67981;51.022;-2.870;2023-09-18T10:10:52;99586.09;;;17.07;100.00
78665;BME280;67981;51.022;-2.870;2023-09-18T10:13:28;99533.88;;;17.12;100.00
78665;BME280;67981;51.022;-2.870;2023-09-18T10:15:56;99483.72;;;16.99;100.00
78665;BME280;67981;51.022;-2.870;2023-09-18T10:19:09;99460.72;;;16.76;98.29
78665;BME280;67981;51.022;-2.870;2023-09-18T10:24:24;99446.91;;;16.71;94.86
78665;BME280;67981;51.022;-2.870;2023-09-18T10:29:19;99456.44;;;16.72;94.26
78665;BME280;67981;51.022;-2.870;2023-09-18T10:31:45;99448.72;;;16.66;94.36
78665;BME280;67981;51.022;-2.870;2023-09-18T10:34:13;99462.22;;;16.88;94.65
78665;BME280;67981;51.022;-2.870;2023-09-18T10:36:41;99462.19;;;16.89;94.85
78665;BME280;67981;51.022;-2.870;2023-09-18T10:39:09;99470.97;;;16.84;94.95
78665;BME280;67981;51.022;-2.870;2023-09-18T10:41:38;99505.69;;;16.86;95.25
78665;BME280;67981;51.022;-2.870;2023-09-18T10:44:04;99490.34;;;16.69;94.88
78665;BME280;67981;51.022;-2.870;2023-09-18T10:46:31;99502.03;;;16.94;94.75
78665;BME280;67981;51.022;-2.870;2023-09-18T10:48:58;99513.91;;;17.11;94.57
78665;BME280;67981;51.022;-2.870;2023-09-18T10:51:24;99491.41;;;17.07;93.07
78665;BME280;67981;51.022;-2.870;2023-09-18T10:53:50;99494.31;;;16.90;91.38
78665;BME280;67981;51.022;-2.870;2023-09-18T10:56:19;99515.84;;;16.99;90.76
78665;BME280;67981;51.022;-2.870;2023-09-18T10:58:45;99509.13;;;16.88;88.95
78665;BME280;67981;51.022;-2.870;2023-09-18T11:01:13;99521.03;;;17.03;87.70
78665;BME280;67981;51.022;-2.870;2023-09-18T11:03:39;99502.88;;;16.96;86.93
78665;BME280;67981;51.022;-2.870;2023-09-18T11:06:07;99511.50;;;17.00;86.40
78665;BME280;67981;51.022;-2.870;2023-09-18T11:08:45;99539.28;;;17.01;86.16
78665;BME280;67981;51.022;-2.870;2023-09-18T11:11:12;99525.22;;;17.10;85.52
78665;BME280;67981;51.022;-2.870;2023-09-18T11:13:46;99513.91;;;17.09;84.16
78665;BME280;67981;51.022;-2.870;2023-09-18T11:21:30;99532.97;;;17.13;84.25
78665;BME280;67981;51.022;-2.870;2023-09-18T11:26:34;99552.97;;;17.58;84.41
78665;BME280;67981;51.022;-2.870;2023-09-18T11:29:07;99557.59;;;17.86;84.24
78665;BME280;67981;51.022;-2.870;2023-09-18T11:31:54;99564.47;;;17.90;84.85
78665;BME280;67981;51.022;-2.870;2023-09-18T11:34:25;99564.63;;;17.84;85.27
78665;BME280;67981;51.022;-2.870;2023-09-18T11:36:54;99566.16;;;17.93;85.35
78665;BME280;67981;51.022;-2.870;2023-09-18T11:39:40;99544.78;;;17.76;85.32
78665;BME280;67981;51.022;-2.870;2023-09-18T11:42:14;99579.50;;;17.79;86.07
78665;BME280;67981;51.022;-2.870;2023-09-18T11:44:42;99586.31;;;17.85;86.55
78665;BME280;67981;51.022;-2.870;2023-09-18T11:47:14;99586.13;;;17.53;85.86
78665;BME280;67981;51.022;-2.870;2023-09-18T11:49:51;99582.72;;;17.51;86.42
78665;BME280;67981;51.022;-2.870;2023-09-18T11:52:25;99607.34;;;17.79;86.89
78665;BME280;67981;51.022;-2.870;2023-09-18T11:54:51;99602.78;;;17.88;86.52
78665;BME280;67981;51.022;-2.870;2023-09-18T11:57:19;99583.63;;;17.47;86.70
78665;BME280;67981;51.022;-2.870;2023-09-18T11:59:45;99616.59;;;17.52;87.20
78665;BME280;67981;51.022;-2.870;2023-09-18T12:02:14;99628.91;;;17.43;87.82
78665;BME280;67981;51.022;-2.870;2023-09-18T12:04:54;99646.34;;;17.41;88.79
78665;BME280;67981;51.022;-2.870;2023-09-18T12:07:19;99671.41;;;17.51;88.89
78665;BME280;67981;51.022;-2.870;2023-09-18T12:09:45;99658.44;;;17.43;88.84
78665;BME280;67981;51.022;-2.870;2023-09-18T12:12:10;99662.69;;;17.52;88.28
78665;BME280;67981;51.022;-2.870;2023-09-18T12:14:39;99664.25;;;17.60;87.83
78665;BME280;67981;51.022;-2.870;2023-09-18T12:17:07;99669.44;;;17.62;88.26
78665;BME280;67981;51.022;-2.870;2023-09-18T12:19:33;99686.59;;;17.75;88.06
78665;BME280;67981;51.022;-2.870;2023-09-18T12:22:00;99684.13;;;17.67;88.50
78665;BME280;67981;51.022;-2.870;2023-09-18T12:24:26;99703.53;;;17.51;89.05
78665;BME280;67981;51.022;-2.870;2023-09-18T12:26:53;99708.59;;;17.09;89.44
78665;BME280;67981;51.022;-2.870;2023-09-18T12:29:20;99716.53;;;16.99;89.90
78665;BME280;67981;51.022;-2.870;2023-09-18T12:31:46;99719.75;;;17.18;90.69
78665;BME280;67981;51.022;-2.870;2023-09-18T12:34:18;99719.88;;;17.11;91.02
78665;BME280;67981;51.022;-2.870;2023-09-18T12:36:47;99742.72;;;17.48;91.13
78665;BME280;67981;51.022;-2.870;2023-09-18T12:39:16;99749.28;;;17.70;90.03
78665;BME280;67981;51.022;-2.870;2023-09-18T12:41:43;99733.22;;;17.44;89.95
78665;BME280;67981;51.022;-2.870;2023-09-18T12:44:09;99719.78;;;17.15;89.94
78665;BME280;67981;51.022;-2.870;2023-09-18T12:46:36;99747.94;;;16.93;90.98
78665;BME280;67981;51.022;-2.870;2023-09-18T12:49:22;99762.75;;;16.88;91.65
78665;BME280;67981;51.022;-2.870;2023-09-18T12:52:01;99763.03;;;16.72;92.18
78665;BME280;67981;51.022;-2.870;2023-09-18T12:54:40;99753.66;;;16.59;90.66
78665;BME280;67981;51.022;-2.870;2023-09-18T12:57:06;99761.34;;;16.66;90.00
78665;BME280;67981;51.022;-2.870;2023-09-18T12:59:36;99740.31;;;16.81;88.61
78665;BME280;67981;51.022;-2.870;2023-09-18T13:02:05;99743.72;;;16.83;87.52